createdAt,value
2019-02-10T00:02:34.344Z,98216.97
2019-02-10T00:05:50.146Z,98207.76
2019-02-10T00:09:07.732Z,98214.42
2019-02-10T00:12:23.696Z,98203.20
2019-02-10T00:15:39.082Z,98212.88
2019-02-10T00:18:54.627Z,98207.55
2019-02-10T00:22:09.963Z,98198.20
2019-02-10T00:25:25.106Z,98191.97
2019-02-10T00:28:40.680Z,98186.71
2019-02-10T00:31:56.023Z,98176.92
2019-02-10T00:35:11.167Z,98170.52
2019-02-10T00:38:26.418Z,98157.48
2019-02-10T00:41:42.162Z,98156.75
2019-02-10T00:44:57.330Z,98143.97
2019-02-10T00:48:12.689Z,98128.16
2019-02-10T00:51:27.986Z,98127.41
2019-02-10T00:54:43.587Z,98123.82
2019-02-10T00:57:58.950Z,98120.52
2019-02-10T01:01:14.508Z,98119.48
2019-02-10T01:04:29.858Z,98103.06
2019-02-10T01:07:45.217Z,98100.81
2019-02-10T01:11:00.789Z,98100.61
2019-02-10T01:14:16.330Z,98096.75
2019-02-10T01:17:31.683Z,98090.77
2019-02-10T01:20:46.939Z,98080.36
2019-02-10T01:24:02.489Z,98069.67
2019-02-10T01:27:17.849Z,98046.94
2019-02-10T01:30:34.216Z,98042.84
2019-02-10T01:33:49.896Z,98033.16
2019-02-10T01:37:05.295Z,98029.78
2019-02-10T01:40:20.590Z,98019.53
2019-02-10T01:43:35.946Z,98015.92
2019-02-10T01:46:51.850Z,97997.16
2019-02-10T01:50:08.074Z,97988.33
2019-02-10T01:53:23.435Z,97983.39
2019-02-10T01:56:38.686Z,97967.80
2019-02-10T01:59:54.046Z,97963.33
2019-02-10T02:03:10.179Z,97955.53
2019-02-10T02:06:26.067Z,97937.72
2019-02-10T02:09:41.327Z,97932.83
2019-02-10T02:12:56.682Z,97925.68
2019-02-10T02:16:12.040Z,97929.45
2019-02-10T02:19:27.844Z,97907.34
2019-02-10T02:22:43.263Z,97902.02
2019-02-10T02:25:58.704Z,97890.72
2019-02-10T02:29:14.163Z,97877.61
2019-02-10T02:32:29.626Z,97868.95
2019-02-10T02:35:44.971Z,97868.56
2019-02-10T02:39:00.465Z,97854.55
2019-02-10T02:42:16.283Z,97850.08
2019-02-10T02:45:31.792Z,97846.85
2019-02-10T02:48:47.665Z,97833.91
2019-02-10T02:52:03.103Z,97825.77
2019-02-10T02:55:18.388Z,97816.55
2019-02-10T02:58:33.879Z,97819.14
2019-02-10T03:01:49.988Z,97811.82
2019-02-10T03:05:05.008Z,97801.80
2019-02-10T03:08:20.451Z,97795.69
2019-02-10T03:11:35.915Z,97775.51
2019-02-10T03:14:51.380Z,97760.92
2019-02-10T03:18:06.923Z,97754.47
2019-02-10T03:21:22.171Z,97744.07
2019-02-10T03:24:38.340Z,97744.85
2019-02-10T03:27:53.621Z,97733.27
2019-02-10T03:31:09.487Z,97737.85
2019-02-10T03:34:24.818Z,97727.97
2019-02-10T03:37:40.167Z,97717.41
2019-02-10T03:40:55.425Z,97706.44
2019-02-10T03:44:10.703Z,97708.86
2019-02-10T03:47:26.052Z,97707.16
2019-02-10T03:50:41.476Z,97699.20
2019-02-10T03:53:56.831Z,97680.23
2019-02-10T03:57:12.496Z,97674.32
2019-02-10T04:00:27.955Z,97678.63
2019-02-10T04:03:43.297Z,97670.18
2019-02-10T04:06:58.676Z,97673.44
2019-02-10T04:10:14.710Z,97675.27
2019-02-10T04:13:29.972Z,97666.32
2019-02-10T04:16:45.532Z,97668.27
2019-02-10T04:20:00.900Z,97658.12
2019-02-10T04:23:16.142Z,97653.25
2019-02-10T04:26:31.269Z,97653.02
2019-02-10T04:29:46.539Z,97641.80
2019-02-10T04:33:01.991Z,97638.45
2019-02-10T04:36:17.350Z,97619.22
2019-02-10T04:39:32.497Z,97610.66
2019-02-10T04:42:48.339Z,97607.20
2019-02-10T04:46:03.814Z,97597.75
2019-02-10T04:49:18.967Z,97587.84
2019-02-10T04:52:34.216Z,97577.20
2019-02-10T04:56:10.308Z,97566.72
2019-02-10T04:59:25.490Z,97554.61
2019-02-10T05:02:41.386Z,97557.80
2019-02-10T05:05:56.626Z,97546.56
2019-02-10T05:09:12.167Z,97534.69
2019-02-10T05:12:27.823Z,97524.45
2019-02-10T05:15:43.380Z,97530.96
2019-02-10T05:18:58.766Z,97501.06
2019-02-10T05:22:13.988Z,97495.45
2019-02-10T05:25:29.442Z,97493.78
2019-02-10T05:28:45.001Z,97485.05
2019-02-10T05:32:00.362Z,97459.47
2019-02-10T05:35:15.707Z,97457.32
2019-02-10T05:38:30.963Z,97442.89
2019-02-10T05:41:46.797Z,97449.06
2019-02-10T05:45:02.281Z,97432.06
2019-02-10T05:48:17.836Z,97418.92
2019-02-10T05:51:32.984Z,97407.72
2019-02-10T05:54:48.440Z,97404.65
2019-02-10T05:58:03.899Z,97397.78
2019-02-10T06:01:58.308Z,97407.13
2019-02-10T06:05:19.203Z,97383.92
2019-02-10T06:08:34.471Z,97375.09
2019-02-10T06:11:49.734Z,97360.94
2019-02-10T06:15:05.366Z,97342.06
2019-02-10T06:18:20.631Z,97342.06
2019-02-10T06:21:36.197Z,97344.22
2019-02-10T06:24:51.747Z,97322.21
2019-02-10T06:28:06.998Z,97315.74
2019-02-10T06:31:22.356Z,97299.31
2019-02-10T06:34:37.817Z,97288.00
2019-02-10T06:37:53.962Z,97272.77
2019-02-10T06:41:09.266Z,97250.37
2019-02-10T06:44:24.696Z,97243.78
2019-02-10T06:47:39.939Z,97235.48
2019-02-10T06:50:55.186Z,97228.01
2019-02-10T06:54:10.750Z,97227.22
2019-02-10T06:57:26.803Z,97220.28
2019-02-10T07:00:58.328Z,97221.77
2019-02-10T07:04:20.262Z,97208.84
2019-02-10T07:07:35.739Z,97223.09
2019-02-10T07:10:50.947Z,97220.38
2019-02-10T07:14:14.634Z,97219.00
2019-02-10T07:17:43.646Z,97220.95
2019-02-10T07:20:58.906Z,97214.27
2019-02-10T07:25:00.559Z,97208.28
2019-02-10T07:28:42.259Z,97218.64
2019-02-10T07:32:08.982Z,97197.59
2019-02-10T07:35:31.592Z,97199.44
2019-02-10T07:39:25.115Z,97198.45
2019-02-10T07:43:07.851Z,97192.67
2019-02-10T07:46:56.004Z,97193.81
2019-02-10T07:50:37.235Z,97203.73
2019-02-10T07:54:10.397Z,97177.20
2019-02-10T07:58:00.432Z,97171.98
2019-02-10T08:02:17.899Z,97162.73
2019-02-10T08:06:02.630Z,97159.17
2019-02-10T08:10:01.171Z,97141.25
2019-02-10T08:14:03.701Z,97135.16
2019-02-10T08:18:14.202Z,97109.33
2019-02-10T08:22:21.735Z,97089.37
2019-02-10T08:26:17.969Z,97070.20
2019-02-10T08:30:16.213Z,97054.25
2019-02-10T08:33:42.154Z,97061.63
2019-02-10T08:37:25.763Z,97046.67
2019-02-10T08:41:09.868Z,97031.42
2019-02-10T08:44:46.303Z,97021.38
2019-02-10T08:48:26.932Z,97004.84
2019-02-10T08:51:52.524Z,96981.34
2019-02-10T08:55:07.917Z,96978.95
2019-02-10T08:58:23.968Z,96966.95
2019-02-10T09:01:39.412Z,96973.52
2019-02-10T09:04:55.470Z,96939.74
2019-02-10T09:08:12.265Z,96940.94
2019-02-10T09:11:28.532Z,96925.86
2019-02-10T09:14:44.099Z,96927.14
2019-02-10T09:17:59.595Z,96923.38
2019-02-10T09:21:15.015Z,96908.06
2019-02-10T09:24:30.262Z,96911.81
2019-02-10T09:27:45.718Z,96902.26
2019-02-10T09:31:01.007Z,96892.69
2019-02-10T09:34:16.323Z,96897.18
2019-02-10T09:37:31.686Z,96880.20
2019-02-10T09:40:47.835Z,96892.59
2019-02-10T09:44:02.894Z,96874.30
2019-02-10T09:47:18.009Z,96858.69
2019-02-10T09:50:34.177Z,96856.34
2019-02-10T09:53:49.423Z,96854.30
2019-02-10T09:57:04.737Z,96866.98
2019-02-10T10:00:19.977Z,96847.97
2019-02-10T10:03:35.528Z,96863.41
2019-02-10T10:06:51.913Z,96864.77
2019-02-10T10:10:08.581Z,96849.69
2019-02-10T10:13:24.046Z,96840.42
2019-02-10T10:16:39.405Z,96842.06
2019-02-10T10:19:55.551Z,96815.02
2019-02-10T10:23:11.403Z,96827.27
2019-02-10T10:26:27.587Z,96836.58
2019-02-10T10:29:42.971Z,96829.08
2019-02-10T10:32:58.183Z,96801.77
2019-02-10T10:36:14.487Z,96808.68
2019-02-10T10:39:30.005Z,96800.90
2019-02-10T10:42:46.208Z,96785.62
2019-02-10T10:46:01.487Z,96803.68
2019-02-10T10:49:17.380Z,96809.95
2019-02-10T10:52:33.535Z,96795.95
2019-02-10T10:55:48.859Z,96794.91
2019-02-10T10:59:04.314Z,96784.20
2019-02-10T11:02:20.476Z,96765.36
2019-02-10T11:05:36.139Z,96756.61
2019-02-10T11:08:51.641Z,96770.28
2019-02-10T11:12:07.387Z,96763.47
2019-02-10T11:15:22.714Z,96773.39
2019-02-10T11:18:37.876Z,96752.98
2019-02-10T11:21:53.958Z,96757.07
2019-02-10T11:25:09.266Z,96757.39
2019-02-10T11:28:24.547Z,96748.49
2019-02-10T11:31:39.995Z,96753.17
2019-02-10T11:34:56.157Z,96743.12
2019-02-10T11:38:11.818Z,96741.54
2019-02-10T11:41:29.565Z,96737.56
2019-02-10T11:44:44.787Z,96730.67
2019-02-10T11:48:00.243Z,96737.80
2019-02-10T11:51:16.385Z,96719.83
2019-02-10T11:54:32.780Z,96707.36
2019-02-10T11:57:48.061Z,96711.53
2019-02-10T12:01:04.194Z,96704.50
2019-02-10T12:04:20.127Z,96710.02
2019-02-10T12:07:35.433Z,96690.02
2019-02-10T12:10:51.475Z,96682.34
2019-02-10T12:14:07.170Z,96680.16
2019-02-10T12:17:23.478Z,96695.35
2019-02-10T12:20:38.656Z,96673.77
2019-02-10T12:23:53.806Z,96659.95
2019-02-10T12:27:12.143Z,96663.80
2019-02-10T12:30:27.865Z,96642.54
2019-02-10T12:33:44.031Z,96645.69
2019-02-10T12:36:59.548Z,96653.86
2019-02-10T12:40:14.917Z,96660.80
2019-02-10T12:43:30.030Z,96648.73
2019-02-10T12:46:46.016Z,96655.81
2019-02-10T12:50:01.541Z,96642.97
2019-02-10T12:53:17.471Z,96644.24
2019-02-10T12:56:33.815Z,96668.20
2019-02-10T12:59:49.682Z,96638.92
2019-02-10T13:03:05.125Z,96647.80
2019-02-10T13:06:20.296Z,96668.04
2019-02-10T13:09:35.739Z,96666.79
2019-02-10T13:12:51.872Z,96661.00
2019-02-10T13:16:07.476Z,96651.85
2019-02-10T13:32:18.242Z,96652.50
2019-02-10T13:35:34.191Z,96636.23
2019-02-10T13:38:49.750Z,96634.95
2019-02-10T13:42:05.137Z,96639.58
2019-02-10T13:45:20.482Z,96659.31
2019-02-10T13:48:36.029Z,96661.23
2019-02-10T13:51:51.817Z,96663.63
2019-02-10T13:55:07.942Z,96668.11
2019-02-10T13:58:24.163Z,96661.91
2019-02-10T14:01:39.582Z,96671.00
2019-02-10T14:04:54.508Z,96682.71
2019-02-10T14:08:09.881Z,96706.36
2019-02-10T14:11:25.386Z,96703.38
2019-02-10T14:14:41.290Z,96721.52
2019-02-10T14:17:56.659Z,96746.18
2019-02-10T14:21:11.194Z,96731.11
2019-02-10T14:24:28.139Z,96751.59
2019-02-10T14:27:43.718Z,96732.13
2019-02-10T14:30:58.890Z,96734.51
2019-02-10T14:34:15.009Z,96732.73
2019-02-10T14:37:30.074Z,96740.64
2019-02-10T14:40:45.462Z,96747.03
2019-02-10T14:44:00.944Z,96752.00
2019-02-10T14:47:16.371Z,96741.02
2019-02-10T14:50:31.570Z,96756.89
2019-02-10T14:53:47.631Z,96757.11
2019-02-10T14:57:02.976Z,96762.32
2019-02-10T15:00:18.628Z,96774.91
2019-02-10T15:03:33.956Z,96779.30
2019-02-10T15:06:49.211Z,96778.12
2019-02-10T15:10:05.264Z,96780.94
2019-02-10T15:13:20.531Z,96781.69
2019-02-10T15:16:36.061Z,96773.44
2019-02-10T15:19:52.270Z,96772.88
2019-02-10T15:23:08.351Z,96753.48
2019-02-10T15:26:23.785Z,96765.31
2019-02-10T15:29:39.340Z,96766.95
2019-02-10T15:32:54.923Z,96772.98
2019-02-10T15:36:10.151Z,96783.19
2019-02-10T15:39:25.308Z,96770.94
2019-02-10T15:42:41.564Z,96765.48
2019-02-10T15:45:57.763Z,96773.63
2019-02-10T15:49:12.895Z,96785.42
2019-02-10T15:52:28.846Z,96786.95
2019-02-10T15:55:44.215Z,96797.63
2019-02-10T15:59:00.264Z,96799.77
2019-02-10T16:02:15.547Z,96791.28
2019-02-10T16:05:30.929Z,96800.20
2019-02-10T16:08:46.470Z,96809.09
2019-02-10T16:12:02.350Z,96812.97
2019-02-10T16:15:17.773Z,96825.92
2019-02-10T16:18:33.263Z,96814.79
2019-02-10T16:21:48.580Z,96810.36
2019-02-10T16:25:04.276Z,96826.16
2019-02-10T16:28:20.198Z,96838.89
2019-02-10T16:31:36.579Z,96865.66
2019-02-10T16:34:51.813Z,96856.28
2019-02-10T16:38:06.980Z,96858.66
2019-02-10T16:41:22.292Z,96847.39
2019-02-10T16:44:38.423Z,96860.61
2019-02-10T16:47:53.962Z,96865.41
2019-02-10T16:51:10.052Z,96870.95
2019-02-10T16:54:25.426Z,96877.83
2019-02-10T16:57:41.010Z,96887.82
2019-02-10T17:00:56.480Z,96877.34
2019-02-10T17:04:11.972Z,96890.05
2019-02-10T17:07:27.886Z,96919.53
2019-02-10T17:10:43.071Z,96947.00
2019-02-10T17:13:58.521Z,96995.84
2019-02-10T17:17:14.409Z,96973.39
2019-02-10T17:20:29.555Z,96982.44
2019-02-10T17:23:45.075Z,96989.75
2019-02-10T17:27:00.451Z,96997.50
2019-02-10T17:30:15.821Z,97006.80
2019-02-10T17:33:31.055Z,97012.20
2019-02-10T17:36:46.316Z,97021.48
2019-02-10T17:40:01.556Z,97021.11
2019-02-10T17:43:16.913Z,97039.98
2019-02-10T17:46:34.922Z,97028.52
2019-02-10T17:49:50.375Z,97046.84
2019-02-10T17:53:05.936Z,97056.22
2019-02-10T17:56:21.287Z,97056.47
2019-02-10T17:59:37.109Z,97058.20
2019-02-10T18:02:52.623Z,97068.89
2019-02-10T18:06:08.171Z,97083.69
2019-02-10T18:09:23.432Z,97078.48
2019-02-10T18:12:39.457Z,97066.06
2019-02-10T18:16:18.450Z,97085.33
2019-02-10T18:19:43.484Z,97089.03
2019-02-10T18:23:15.586Z,97085.92
2019-02-10T18:26:46.405Z,97084.53
2019-02-10T18:30:15.513Z,97095.30
2019-02-10T18:33:36.667Z,97100.47
2019-02-10T18:37:08.909Z,97100.39
2019-02-10T18:40:42.585Z,97092.47
2019-02-10T18:44:14.549Z,97112.84
2019-02-10T18:47:37.220Z,97101.20
2019-02-10T18:51:11.059Z,97125.67
2019-02-10T18:54:42.559Z,97119.40
2019-02-10T18:58:14.664Z,97113.88
2019-02-10T19:01:47.462Z,97129.42
2019-02-10T19:05:25.343Z,97141.86
2019-02-10T19:09:05.491Z,97125.45
2019-02-10T19:12:29.545Z,97147.72
2019-02-10T19:15:55.043Z,97147.36
2019-02-10T19:19:28.977Z,97158.81
2019-02-10T19:22:56.205Z,97165.44
2019-02-10T19:26:32.451Z,97173.51
2019-02-10T19:29:58.151Z,97160.31
2019-02-10T19:33:23.211Z,97166.23
2019-02-10T19:36:50.936Z,97167.30
2019-02-10T19:40:22.382Z,97179.22
2019-02-10T19:43:55.243Z,97175.03
2019-02-10T19:47:21.716Z,97190.59
2019-02-10T19:50:59.499Z,97202.91
2019-02-10T19:54:19.971Z,97187.59
2019-02-10T19:57:51.845Z,97196.64
2019-02-10T20:01:23.759Z,97207.05
2019-02-10T20:04:55.872Z,97224.59
2019-02-10T20:08:35.669Z,97228.33
2019-02-10T20:12:03.974Z,97233.63
2019-02-10T20:15:32.512Z,97255.42
2019-02-10T20:18:53.789Z,97257.58
2019-02-10T20:22:38.819Z,97269.35
2019-02-10T20:26:13.568Z,97271.65
2019-02-10T20:29:46.360Z,97288.51
2019-02-10T20:33:14.654Z,97294.53
2019-02-10T20:36:43.843Z,97296.75
2019-02-10T20:40:16.706Z,97311.73
2019-02-10T20:43:40.647Z,97304.63
2019-02-10T20:47:28.966Z,97313.25
2019-02-10T20:50:52.600Z,97322.91
2019-02-10T20:54:13.383Z,97342.43
2019-02-10T20:57:49.400Z,97346.34
2019-02-10T21:01:17.449Z,97367.47
2019-02-10T21:04:47.645Z,97367.25
2019-02-10T21:08:21.893Z,97384.27
2019-02-10T21:12:11.824Z,97397.20
2019-02-10T21:15:43.350Z,97418.55
2019-02-10T21:19:15.318Z,97411.31
2019-02-10T21:22:48.172Z,97417.80
2019-02-10T21:26:13.649Z,97423.61
2019-02-10T21:29:42.322Z,97448.75
2019-02-10T21:33:24.403Z,97460.37
2019-02-10T21:37:05.120Z,97458.17
2019-02-10T21:40:36.906Z,97471.42
2019-02-10T21:43:58.113Z,97480.13
2019-02-10T21:47:22.042Z,97490.92
2019-02-10T21:50:37.599Z,97503.42
2019-02-10T21:53:52.956Z,97506.54
2019-02-10T21:57:08.308Z,97521.94
2019-02-10T22:00:23.660Z,97522.86
2019-02-10T22:03:38.808Z,97531.58
2019-02-10T22:06:54.369Z,97546.48
2019-02-10T22:10:10.732Z,97549.78
2019-02-10T22:13:26.194Z,97556.44
2019-02-10T22:16:41.451Z,97555.69
2019-02-10T22:19:57.289Z,97553.45
2019-02-10T22:23:13.503Z,97564.63
2019-02-10T22:26:28.601Z,97555.40
2019-02-10T22:29:44.107Z,97571.56
2019-02-10T22:32:59.545Z,97577.66
2019-02-10T22:36:15.097Z,97593.88
2019-02-10T22:39:30.356Z,97582.72
2019-02-10T22:42:46.173Z,97582.89
2019-02-10T22:46:01.789Z,97593.33
2019-02-10T22:49:16.935Z,97603.87
2019-02-10T22:52:32.722Z,97599.56
2019-02-10T22:55:48.138Z,97611.72
2019-02-10T22:59:03.348Z,97622.91
2019-02-10T23:02:18.489Z,97637.65
2019-02-10T23:05:33.735Z,97619.48
2019-02-10T23:08:49.509Z,97618.45
2019-02-10T23:12:04.732Z,97637.63
2019-02-10T23:15:20.295Z,97651.22
2019-02-10T23:18:36.358Z,97655.16
2019-02-10T23:21:51.626Z,97662.39
2019-02-10T23:25:07.084Z,97666.44
2019-02-10T23:28:22.538Z,97674.08
2019-02-10T23:31:38.095Z,97681.44
2019-02-10T23:34:53.349Z,97699.49
2019-02-10T23:38:08.723Z,97703.17
2019-02-10T23:41:24.051Z,97693.38
2019-02-10T23:44:39.198Z,97702.78
2019-02-10T23:47:54.461Z,97704.29
2019-02-10T23:51:09.912Z,97720.06
2019-02-10T23:54:25.207Z,97724.61
2019-02-10T23:57:40.864Z,97714.69
